sensor_id;sensor_type;location;lat;lon;timestamp;P1;durP1;ratioP1;P2;durP2;ratioP2
79122;SDS011;68526;44.600;26.032;2023-08-30T00:00:00;16.42;;;7.70;;
79122;SDS011;68526;44.600;26.032;2023-08-30T00:00:15;14.65;;;8.18;;
79122;SDS011;68526;44.600;26.032;2023-08-30T00:00:32;15.20;;;8.27;;
79122;SDS011;68526;44.600;26.032;2023-08-30T00:00:48;19.08;;;8.35;;
79122;SDS011;68526;44.600;26.032;2023-08-30T00:01:04;16.30;;;8.32;;
79122;SDS011;68526;44.600;26.032;2023-08-30T00:01:20;12.98;;;7.95;;
79122;SDS011;68526;44.600;26.032;2023-08-30T00:01:35;11.83;;;7.70;;
79122;SDS011;68526;44.600;26.032;2023-08-30T00:01:52;13.15;;;8.23;;
79122;SDS011;68526;44.600;26.032;2023-08-30T00:02:08;15.30;;;8.60;;
79122;SDS011;68526;44.600;26.032;2023-08-30T00:02:24;13.93;;;8.00;;
79122;SDS011;68526;44.600;26.032;2023-08-30T00:02:40;12.30;;;7.83;;
79122;SDS011;68526;44.600;26.032;2023-08-30T00:02:55;13.77;;;8.30;;
79122;SDS011;68526;44.600;26.032;2023-08-30T00:03:11;13.65;;;8.32;;
79122;SDS011;68526;44.600;26.032;2023-08-30T00:03:27;13.07;;;8.05;;
79122;SDS011;68526;44.600;26.032;2023-08-30T00:03:43;13.80;;;8.00;;
79122;SDS011;68526;44.600;26.032;2023-08-30T00:03:59;13.35;;;7.95;;
79122;SDS011;68526;44.600;26.032;2023-08-30T00:04:15;13.63;;;7.88;;
79122;SDS011;68526;44.600;26.032;2023-08-30T00:04:31;13.60;;;8.00;;
79122;SDS011;68526;44.600;26.032;2023-08-30T00:04:47;15.13;;;8.02;;
79122;SDS011;68526;44.600;26.032;2023-08-30T00:05:03;17.52;;;8.25;;
79122;SDS011;68526;44.600;26.032;2023-08-30T00:05:19;13.10;;;7.60;;
79122;SDS011;68526;44.600;26.032;2023-08-30T00:05:38;10.77;;;7.10;;
79122;SDS011;68526;44.600;26.032;2023-08-30T00:05:54;14.48;;;7.10;;
79122;SDS011;68526;44.600;26.032;2023-08-30T00:06:11;18.33;;;7.65;;
79122;SDS011;68526;44.600;26.032;2023-08-30T00:06:27;17.90;;;8.00;;
79122;SDS011;68526;44.600;26.032;2023-08-30T00:06:43;14.43;;;7.90;;
79122;SDS011;68526;44.600;26.032;2023-08-30T00:06:58;13.40;;;8.00;;
79122;SDS011;68526;44.600;26.032;2023-08-30T00:07:14;12.98;;;7.93;;
79122;SDS011;68526;44.600;26.032;2023-08-30T00:07:31;12.65;;;7.78;;
79122;SDS011;68526;44.600;26.032;2023-08-30T00:07:47;14.52;;;8.00;;
79122;SDS011;68526;44.600;26.032;2023-08-30T00:08:03;16.00;;;8.47;;
79122;SDS011;68526;44.600;26.032;2023-08-30T00:08:20;14.73;;;8.57;;
79122;SDS011;68526;44.600;26.032;2023-08-30T00:08:36;11.87;;;8.07;;
79122;SDS011;68526;44.600;26.032;2023-08-30T00:08:52;10.75;;;7.68;;
79122;SDS011;68526;44.600;26.032;2023-08-30T00:09:07;13.45;;;8.00;;
79122;SDS011;68526;44.600;26.032;2023-08-30T00:09:23;14.63;;;8.32;;
79122;SDS011;68526;44.600;26.032;2023-08-30T00:09:40;11.98;;;8.02;;
79122;SDS011;68526;44.600;26.032;2023-08-30T00:09:56;10.30;;;7.88;;
79122;SDS011;68526;44.600;26.032;2023-08-30T00:10:14;10.07;;;8.07;;
79122;SDS011;68526;44.600;26.032;2023-08-30T00:10:30;10.40;;;8.00;;
79122;SDS011;68526;44.600;26.032;2023-08-30T00:10:46;13.18;;;8.07;;
79122;SDS011;68526;44.600;26.032;2023-08-30T00:11:02;13.13;;;8.10;;
79122;SDS011;68526;44.600;26.032;2023-08-30T00:11:19;16.58;;;8.15;;
79122;SDS011;68526;44.600;26.032;2023-08-30T00:11:35;15.43;;;8.18;;
79122;SDS011;68526;44.600;26.032;2023-08-30T00:11:52;12.23;;;8.10;;
79122;SDS011;68526;44.600;26.032;2023-08-30T00:12:07;10.80;;;7.88;;
79122;SDS011;68526;44.600;26.032;2023-08-30T00:12:23;9.10;;;7.28;;
79122;SDS011;68526;44.600;26.032;2023-08-30T00:12:39;13.02;;;7.63;;
79122;SDS011;68526;44.600;26.032;2023-08-30T00:12:55;14.85;;;7.90;;
79122;SDS011;68526;44.600;26.032;2023-08-30T00:13:11;12.33;;;7.50;;
79122;SDS011;68526;44.600;26.032;2023-08-30T00:13:28;13.15;;;7.68;;
79122;SDS011;68526;44.600;26.032;2023-08-30T00:13:46;12.15;;;7.90;;
79122;SDS011;68526;44.600;26.032;2023-08-30T00:14:03;10.98;;;7.88;;
79122;SDS011;68526;44.600;26.032;2023-08-30T00:14:20;12.20;;;7.90;;
79122;SDS011;68526;44.600;26.032;2023-08-30T00:14:36;11.40;;;7.60;;
79122;SDS011;68526;44.600;26.032;2023-08-30T00:14:52;11.68;;;7.70;;
79122;SDS011;68526;44.600;26.032;2023-08-30T00:15:08;10.77;;;7.55;;
79122;SDS011;68526;44.600;26.032;2023-08-30T00:15:24;9.18;;;7.63;;
79122;SDS011;68526;44.600;26.032;2023-08-30T00:15:41;9.18;;;7.53;;
79122;SDS011;68526;44.600;26.032;2023-08-30T00:15:57;10.70;;;7.78;;
79122;SDS011;68526;44.600;26.032;2023-08-30T00:16:13;12.33;;;7.87;;
79122;SDS011;68526;44.600;26.032;2023-08-30T00:16:31;12.65;;;7.80;;
79122;SDS011;68526;44.600;26.032;2023-08-30T00:16:47;10.52;;;7.22;;
79122;SDS011;68526;44.600;26.032;2023-08-30T00:17:03;10.70;;;7.53;;
79122;SDS011;68526;44.600;26.032;2023-08-30T00:17:20;11.60;;;7.93;;
79122;SDS011;68526;44.600;26.032;2023-08-30T00:17:36;12.18;;;7.75;;
79122;SDS011;68526;44.600;26.032;2023-08-30T00:17:52;11.00;;;7.70;;
79122;SDS011;68526;44.600;26.032;2023-08-30T00:18:08;10.90;;;7.63;;
79122;SDS011;68526;44.600;26.032;2023-08-30T00:18:24;9.75;;;7.32;;
79122;SDS011;68526;44.600;26.032;2023-08-30T00:18:40;11.63;;;7.43;;
79122;SDS011;68526;44.600;26.032;2023-08-30T00:18:55;12.67;;;7.83;;
79122;SDS011;68526;44.600;26.032;2023-08-30T00:19:12;12.07;;;8.00;;
79122;SDS011;68526;44.600;26.032;2023-08-30T00:19:28;13.07;;;8.00;;
79122;SDS011;68526;44.600;26.032;2023-08-30T00:19:44;11.15;;;7.85;;
79122;SDS011;68526;44.600;26.032;2023-08-30T00:19:59;9.70;;;7.70;;
79122;SDS011;68526;44.600;26.032;2023-08-30T00:20:15;12.55;;;8.15;;
79122;SDS011;68526;44.600;26.032;2023-08-30T00:20:31;14.68;;;8.07;;
79122;SDS011;68526;44.600;26.032;2023-08-30T00:20:49;14.07;;;7.88;;
79122;SDS011;68526;44.600;26.032;2023-08-30T00:21:04;14.05;;;8.05;;
79122;SDS011;68526;44.600;26.032;2023-08-30T00:21:22;11.38;;;7.60;;
79122;SDS011;68526;44.600;26.032;2023-08-30T00:21:37;12.38;;;7.90;;
79122;SDS011;68526;44.600;26.032;2023-08-30T00:21:53;11.87;;;7.93;;
79122;SDS011;68526;44.600;26.032;2023-08-30T00:22:09;10.20;;;7.82;;
79122;SDS011;68526;44.600;26.032;2023-08-30T00:22:24;11.88;;;7.93;;
79122;SDS011;68526;44.600;26.032;2023-08-30T00:22:44;12.77;;;8.43;;
79122;SDS011;68526;44.600;26.032;2023-08-30T00:23:00;12.60;;;8.20;;
79122;SDS011;68526;44.600;26.032;2023-08-30T00:23:15;13.07;;;7.90;;
79122;SDS011;68526;44.600;26.032;2023-08-30T00:23:31;12.10;;;8.10;;
79122;SDS011;68526;44.600;26.032;2023-08-30T00:23:47;12.20;;;8.07;;
79122;SDS011;68526;44.600;26.032;2023-08-30T00:24:03;13.05;;;7.90;;
79122;SDS011;68526;44.600;26.032;2023-08-30T00:24:20;12.02;;;7.78;;
79122;SDS011;68526;44.600;26.032;2023-08-30T00:24:37;10.23;;;7.53;;
79122;SDS011;68526;44.600;26.032;2023-08-30T00:24:53;12.30;;;7.70;;
79122;SDS011;68526;44.600;26.032;2023-08-30T00:25:09;13.15;;;8.00;;
79122;SDS011;68526;44.600;26.032;2023-08-30T00:25:25;10.77;;;8.15;;
79122;SDS011;68526;44.600;26.032;2023-08-30T00:25:41;10.85;;;8.18;;
79122;SDS011;68526;44.600;26.032;2023-08-30T00:25:57;11.30;;;7.87;;
79122;SDS011;68526;44.600;26.032;2023-08-30T00:26:14;13.45;;;8.02;;
79122;SDS011;68526;44.600;26.032;2023-08-30T00:26:29;12.20;;;7.80;;
79122;SDS011;68526;44.600;26.032;2023-08-30T00:26:45;10.40;;;7.60;;
79122;SDS011;68526;44.600;26.032;2023-08-30T00:27:01;11.05;;;7.53;;
79122;SDS011;68526;44.600;26.032;2023-08-30T00:27:17;11.23;;;7.18;;
79122;SDS011;68526;44.600;26.032;2023-08-30T00:27:35;11.38;;;7.30;;
79122;SDS011;68526;44.600;26.032;2023-08-30T00:27:51;11.23;;;7.55;;
79122;SDS011;68526;44.600;26.032;2023-08-30T00:28:07;10.82;;;7.47;;
79122;SDS011;68526;44.600;26.032;2023-08-30T00:28:23;9.65;;;7.60;;
79122;SDS011;68526;44.600;26.032;2023-08-30T00:28:39;9.40;;;8.05;;
79122;SDS011;68526;44.600;26.032;2023-08-30T00:28:55;10.95;;;7.85;;
79122;SDS011;68526;44.600;26.032;2023-08-30T00:29:11;11.23;;;7.27;;
79122;SDS011;68526;44.600;26.032;2023-08-30T00:29:27;10.73;;;7.50;;
79122;SDS011;68526;44.600;26.032;2023-08-30T00:29:43;11.00;;;7.43;;
79122;SDS011;68526;44.600;26.032;2023-08-30T00:30:00;11.30;;;7.38;;
79122;SDS011;68526;44.600;26.032;2023-08-30T00:30:15;12.38;;;7.78;;
79122;SDS011;68526;44.600;26.032;2023-08-30T00:30:31;11.45;;;7.78;;
79122;SDS011;68526;44.600;26.032;2023-08-30T00:30:52;10.27;;;7.50;;
79122;SDS011;68526;44.600;26.032;2023-08-30T00:31:08;11.80;;;7.65;;
79122;SDS011;68526;44.600;26.032;2023-08-30T00:31:24;11.98;;;7.72;;
79122;SDS011;68526;44.600;26.032;2023-08-30T00:31:41;10.90;;;7.93;;
79122;SDS011;68526;44.600;26.032;2023-08-30T00:31:57;9.60;;;7.40;;
79122;SDS011;68526;44.600;26.032;2023-08-30T00:32:12;9.50;;;6.80;;
79122;SDS011;68526;44.600;26.032;2023-08-30T00:32:28;9.07;;;6.70;;
79122;SDS011;68526;44.600;26.032;2023-08-30T00:32:44;9.05;;;6.75;;
79122;SDS011;68526;44.600;26.032;2023-08-30T00:33:00;8.67;;;6.90;;
79122;SDS011;68526;44.600;26.032;2023-08-30T00:33:15;8.75;;;7.10;;
79122;SDS011;68526;44.600;26.032;2023-08-30T00:33:32;9.48;;;7.22;;
79122;SDS011;68526;44.600;26.032;2023-08-30T00:33:48;8.95;;;6.88;;
79122;SDS011;68526;44.600;26.032;2023-08-30T00:34:04;11.02;;;6.68;;
79122;SDS011;68526;44.600;26.032;2023-08-30T00:34:20;11.73;;;7.13;;
79122;SDS011;68526;44.600;26.032;2023-08-30T00:34:36;9.25;;;7.45;;
79122;SDS011;68526;44.600;26.032;2023-08-30T00:34:51;9.25;;;7.10;;
79122;SDS011;68526;44.600;26.032;2023-08-30T00:35:08;9.70;;;6.90;;
79122;SDS011;68526;44.600;26.032;2023-08-30T00:35:24;10.47;;;6.90;;
79122;SDS011;68526;44.600;26.032;2023-08-30T00:35:40;10.73;;;7.00;;
79122;SDS011;68526;44.600;26.032;2023-08-30T00:35:56;10.18;;;7.28;;
79122;SDS011;68526;44.600;26.032;2023-08-30T00:36:12;12.82;;;7.20;;
79122;SDS011;68526;44.600;26.032;2023-08-30T00:36:28;12.68;;;6.88;;
79122;SDS011;68526;44.600;26.032;2023-08-30T00:36:45;9.63;;;6.20;;
79122;SDS011;68526;44.600;26.032;2023-08-30T00:37:01;9.90;;;6.38;;
79122;SDS011;68526;44.600;26.032;2023-08-30T00:37:17;10.63;;;6.80;;
79122;SDS011;68526;44.600;26.032;2023-08-30T00:37:33;10.60;;;6.80;;
79122;SDS011;68526;44.600;26.032;2023-08-30T00:37:50;10.57;;;6.77;;
79122;SDS011;68526;44.600;26.032;2023-08-30T00:38:06;9.57;;;6.57;;
79122;SDS011;68526;44.600;26.032;2023-08-30T00:38:22;8.32;;;6.40;;
79122;SDS011;68526;44.600;26.032;2023-08-30T00:38:38;7.63;;;6.60;;
79122;SDS011;68526;44.600;26.032;2023-08-30T00:38:54;9.75;;;6.85;;
79122;SDS011;68526;44.600;26.032;2023-08-30T00:39:10;11.73;;;6.63;;
79122;SDS011;68526;44.600;26.032;2023-08-30T00:39:26;11.57;;;6.43;;
79122;SDS011;68526;44.600;26.032;2023-08-30T00:39:41;9.38;;;6.10;;
79122;SDS011;68526;44.600;26.032;2023-08-30T00:39:57;8.73;;;6.07;;
79122;SDS011;68526;44.600;26.032;2023-08-30T00:40:15;8.88;;;6.47;;
79122;SDS011;68526;44.600;26.032;2023-08-30T00:40:37;8.10;;;6.25;;
79122;SDS011;68526;44.600;26.032;2023-08-30T00:40:53;9.82;;;6.25;;
79122;SDS011;68526;44.600;26.032;2023-08-30T00:41:09;10.75;;;6.43;;
79122;SDS011;68526;44.600;26.032;2023-08-30T00:41:25;10.93;;;6.75;;
79122;SDS011;68526;44.600;26.032;2023-08-30T00:41:41;10.77;;;6.83;;
79122;SDS011;68526;44.600;26.032;2023-08-30T00:41:56;9.10;;;6.40;;
79122;SDS011;68526;44.600;26.032;2023-08-30T00:42:12;7.65;;;6.10;;
79122;SDS011;68526;44.600;26.032;2023-08-30T00:42:29;8.18;;;6.35;;
79122;SDS011;68526;44.600;26.032;2023-08-30T00:42:45;9.47;;;6.30;;
79122;SDS011;68526;44.600;26.032;2023-08-30T00:43:01;9.88;;;6.35;;
79122;SDS011;68526;44.600;26.032;2023-08-30T00:43:17;9.35;;;6.20;;
79122;SDS011;68526;44.600;26.032;2023-08-30T00:43:33;7.90;;;5.80;;
79122;SDS011;68526;44.600;26.032;2023-08-30T00:43:49;7.15;;;5.93;;
79122;SDS011;68526;44.600;26.032;2023-08-30T00:44:06;7.38;;;6.03;;
79122;SDS011;68526;44.600;26.032;2023-08-30T00:44:21;9.07;;;6.18;;
79122;SDS011;68526;44.600;26.032;2023-08-30T00:44:37;9.07;;;6.25;;
79122;SDS011;68526;44.600;26.032;2023-08-30T00:44:53;7.57;;;6.10;;
79122;SDS011;68526;44.600;26.032;2023-08-30T00:45:09;7.20;;;5.95;;
79122;SDS011;68526;44.600;26.032;2023-08-30T00:45:25;6.97;;;6.20;;
79122;SDS011;68526;44.600;26.032;2023-08-30T00:45:42;7.00;;;6.30;;
79122;SDS011;68526;44.600;26.032;2023-08-30T00:45:58;6.80;;;6.10;;
79122;SDS011;68526;44.600;26.032;2023-08-30T00:46:15;8.38;;;6.20;;
79122;SDS011;68526;44.600;26.032;2023-08-30T00:46:31;8.43;;;6.18;;
79122;SDS011;68526;44.600;26.032;2023-08-30T00:46:48;7.10;;;6.20;;
79122;SDS011;68526;44.600;26.032;2023-08-30T00:47:04;7.45;;;6.57;;
79122;SDS011;68526;44.600;26.032;2023-08-30T00:47:20;8.32;;;6.60;;
79122;SDS011;68526;44.600;26.032;2023-08-30T00:47:36;9.52;;;6.65;;
79122;SDS011;68526;44.600;26.032;2023-08-30T00:47:52;8.93;;;6.80;;
79122;SDS011;68526;44.600;26.032;2023-08-30T00:48:09;8.18;;;6.80;;
79122;SDS011;68526;44.600;26.032;2023-08-30T00:48:26;10.23;;;7.03;;
79122;SDS011;68526;44.600;26.032;2023-08-30T00:48:42;9.15;;;6.72;;
79122;SDS011;68526;44.600;26.032;2023-08-30T00:48:59;8.25;;;6.38;;
79122;SDS011;68526;44.600;26.032;2023-08-30T00:49:16;8.68;;;6.30;;
79122;SDS011;68526;44.600;26.032;2023-08-30T00:49:32;9.30;;;6.30;;
79122;SDS011;68526;44.600;26.032;2023-08-30T00:49:49;9.20;;;6.70;;
79122;SDS011;68526;44.600;26.032;2023-08-30T00:50:05;9.77;;;6.80;;
79122;SDS011;68526;44.600;26.032;2023-08-30T00:50:22;11.20;;;6.80;;
79122;SDS011;68526;44.600;26.032;2023-08-30T00:50:38;9.80;;;7.15;;
79122;SDS011;68526;44.600;26.032;2023-08-30T00:50:55;9.95;;;7.20;;
79122;SDS011;68526;44.600;26.032;2023-08-30T00:51:11;10.93;;;7.18;;
79122;SDS011;68526;44.600;26.032;2023-08-30T00:51:27;10.55;;;6.70;;
79122;SDS011;68526;44.600;26.032;2023-08-30T00:51:44;8.73;;;6.47;;
79122;SDS011;68526;44.600;26.032;2023-08-30T00:52:02;8.02;;;6.47;;
79122;SDS011;68526;44.600;26.032;2023-08-30T00:52:21;8.95;;;6.55;;
79122;SDS011;68526;44.600;26.032;2023-08-30T00:52:37;9.65;;;6.95;;
79122;SDS011;68526;44.600;26.032;2023-08-30T00:52:54;9.10;;;7.00;;
79122;SDS011;68526;44.600;26.032;2023-08-30T00:53:10;9.15;;;6.88;;
79122;SDS011;68526;44.600;26.032;2023-08-30T00:53:27;9.48;;;7.00;;
79122;SDS011;68526;44.600;26.032;2023-08-30T00:53:42;9.93;;;6.97;;
79122;SDS011;68526;44.600;26.032;2023-08-30T00:53:59;9.77;;;6.85;;
79122;SDS011;68526;44.600;26.032;2023-08-30T00:54:16;11.23;;;6.72;;
79122;SDS011;68526;44.600;26.032;2023-08-30T00:54:31;11.43;;;6.70;;
79122;SDS011;68526;44.600;26.032;2023-08-30T00:54:47;8.63;;;6.40;;
79122;SDS011;68526;44.600;26.032;2023-08-30T00:55:05;7.30;;;6.30;;
79122;SDS011;68526;44.600;26.032;2023-08-30T00:55:22;7.60;;;6.50;;
79122;SDS011;68526;44.600;26.032;2023-08-30T00:55:38;7.93;;;6.57;;
79122;SDS011;68526;44.600;26.032;2023-08-30T00:55:54;8.18;;;6.43;;
79122;SDS011;68526;44.600;26.032;2023-08-30T00:56:10;8.48;;;6.38;;
79122;SDS011;68526;44.600;26.032;2023-08-30T00:56:27;8.70;;;6.57;;
79122;SDS011;68526;44.600;26.032;2023-08-30T00:56:43;9.25;;;6.63;;
79122;SDS011;68526;44.600;26.032;2023-08-30T00:57:01;10.07;;;6.55;;
79122;SDS011;68526;44.600;26.032;2023-08-30T00:57:19;10.88;;;6.90;;
79122;SDS011;68526;44.600;26.032;2023-08-30T00:57:35;9.60;;;6.43;;
79122;SDS011;68526;44.600;26.032;2023-08-30T00:57:52;9.77;;;6.75;;
79122;SDS011;68526;44.600;26.032;2023-08-30T00:58:08;11.20;;;7.53;;
79122;SDS011;68526;44.600;26.032;2023-08-30T00:58:25;12.48;;;8.05;;
79122;SDS011;68526;44.600;26.032;2023-08-30T00:58:41;10.77;;;7.90;;
79122;SDS011;68526;44.600;26.032;2023-08-30T00:58:58;9.35;;;6.97;;
79122;SDS011;68526;44.600;26.032;2023-08-30T00:59:15;10.18;;;7.10;;
79122;SDS011;68526;44.600;26.032;2023-08-30T00:59:31;10.13;;;7.05;;
79122;SDS011;68526;44.600;26.032;2023-08-30T00:59:48;9.27;;;6.40;;
79122;SDS011;68526;44.600;26.032;2023-08-30T01:00:07;10.43;;;7.03;;
79122;SDS011;68526;44.600;26.032;2023-08-30T01:00:25;10.80;;;7.13;;
79122;SDS011;68526;44.600;26.032;2023-08-30T01:00:40;9.40;;;7.15;;
79122;SDS011;68526;44.600;26.032;2023-08-30T01:00:57;10.43;;;7.40;;
79122;SDS011;68526;44.600;26.032;2023-08-30T01:01:14;9.98;;;7.28;;
79122;SDS011;68526;44.600;26.032;2023-08-30T01:01:30;11.05;;;7.43;;
79122;SDS011;68526;44.600;26.032;2023-08-30T01:01:47;10.20;;;7.28;;
79122;SDS011;68526;44.600;26.032;2023-08-30T01:02:03;9.45;;;7.13;;
79122;SDS011;68526;44.600;26.032;2023-08-30T01:02:20;10.02;;;6.80;;
79122;SDS011;68526;44.600;26.032;2023-08-30T01:02:36;9.98;;;6.78;;
79122;SDS011;68526;44.600;26.032;2023-08-30T01:02:52;9.73;;;6.97;;
79122;SDS011;68526;44.600;26.032;2023-08-30T01:03:08;9.95;;;7.20;;
79122;SDS011;68526;44.600;26.032;2023-08-30T01:03:24;10.43;;;7.28;;
79122;SDS011;68526;44.600;26.032;2023-08-30T01:03:40;9.23;;;6.97;;
79122;SDS011;68526;44.600;26.032;2023-08-30T01:03:56;9.17;;;7.03;;
79122;SDS011;68526;44.600;26.032;2023-08-30T01:04:12;8.98;;;7.20;;
79122;SDS011;68526;44.600;26.032;2023-08-30T01:04:28;10.18;;;7.30;;
79122;SDS011;68526;44.600;26.032;2023-08-30T01:04:44;12.05;;;7.00;;
79122;SDS011;68526;44.600;26.032;2023-08-30T01:05:01;9.65;;;6.63;;
79122;SDS011;68526;44.600;26.032;2023-08-30T01:05:18;8.63;;;6.80;;
79122;SDS011;68526;44.600;26.032;2023-08-30T01:05:34;8.52;;;6.70;;
79122;SDS011;68526;44.600;26.032;2023-08-30T01:05:50;9.70;;;6.70;;
79122;SDS011;68526;44.600;26.032;2023-08-30T01:06:06;9.80;;;7.13;;
79122;SDS011;68526;44.600;26.032;2023-08-30T01:06:22;9.73;;;7.32;;
79122;SDS011;68526;44.600;26.032;2023-08-30T01:06:38;11.40;;;6.93;;
79122;SDS011;68526;44.600;26.032;2023-08-30T01:06:54;10.90;;;6.68;;
79122;SDS011;68526;44.600;26.032;2023-08-30T01:07:10;10.02;;;6.35;;
79122;SDS011;68526;44.600;26.032;2023-08-30T01:07:27;10.95;;;6.40;;
79122;SDS011;68526;44.600;26.032;2023-08-30T01:07:42;11.63;;;6.85;;
79122;SDS011;68526;44.600;26.032;2023-08-30T01:08:00;9.88;;;6.63;;
79122;SDS011;68526;44.600;26.032;2023-08-30T01:08:16;9.00;;;6.68;;
79122;SDS011;68526;44.600;26.032;2023-08-30T01:08:31;8.60;;;6.78;;
79122;SDS011;68526;44.600;26.032;2023-08-30T01:08:48;8.23;;;6.70;;
79122;SDS011;68526;44.600;26.032;2023-08-30T01:09:04;9.82;;;6.90;;
79122;SDS011;68526;44.600;26.032;2023-08-30T01:09:21;9.48;;;6.88;;
79122;SDS011;68526;44.600;26.032;2023-08-30T01:09:37;8.30;;;7.10;;
79122;SDS011;68526;44.600;26.032;2023-08-30T01:09:53;9.55;;;7.25;;
79122;SDS011;68526;44.600;26.032;2023-08-30T01:10:09;9.55;;;6.82;;
79122;SDS011;68526;44.600;26.032;2023-08-30T01:10:27;8.88;;;6.95;;
79122;SDS011;68526;44.600;26.032;2023-08-30T01:11:02;10.05;;;6.80;;
79122;SDS011;68526;44.600;26.032;2023-08-30T01:11:28;8.05;;;6.40;;
79122;SDS011;68526;44.600;26.032;2023-08-30T01:11:48;8.00;;;6.45;;
79122;SDS011;68526;44.600;26.032;2023-08-30T01:12:09;9.57;;;7.15;;
79122;SDS011;68526;44.600;26.032;2023-08-30T01:12:33;9.98;;;7.05;;
79122;SDS011;68526;44.600;26.032;2023-08-30T01:12:56;9.68;;;6.90;;
79122;SDS011;68526;44.600;26.032;2023-08-30T01:13:19;10.48;;;6.78;;
79122;SDS011;68526;44.600;26.032;2023-08-30T01:13:37;11.48;;;7.50;;
79122;SDS011;68526;44.600;26.032;2023-08-30T01:14:04;10.15;;;7.15;;
79122;SDS011;68526;44.600;26.032;2023-08-30T01:14:25;10.05;;;6.93;;
79122;SDS011;68526;44.600;26.032;2023-08-30T01:14:45;10.95;;;7.32;;
79122;SDS011;68526;44.600;26.032;2023-08-30T01:15:09;8.82;;;6.85;;
79122;SDS011;68526;44.600;26.032;2023-08-30T01:15:28;10.18;;;7.00;;
79122;SDS011;68526;44.600;26.032;2023-08-30T01:15:46;9.43;;;7.32;;
79122;SDS011;68526;44.600;26.032;2023-08-30T01:16:03;8.90;;;7.72;;
79122;SDS011;68526;44.600;26.032;2023-08-30T01:16:19;8.73;;;7.47;;
79122;SDS011;68526;44.600;26.032;2023-08-30T01:16:36;10.98;;;7.25;;
79122;SDS011;68526;44.600;26.032;2023-08-30T01:16:53;11.52;;;7.50;;
79122;SDS011;68526;44.600;26.032;2023-08-30T01:17:09;9.98;;;7.32;;
79122;SDS011;68526;44.600;26.032;2023-08-30T01:17:26;8.95;;;7.03;;
79122;SDS011;68526;44.600;26.032;2023-08-30T01:17:44;11.00;;;7.28;;
79122;SDS011;68526;44.600;26.032;2023-08-30T01:18:04;8.18;;;6.85;;
79122;SDS011;68526;44.600;26.032;2023-08-30T01:18:20;8.68;;;7.03;;
79122;SDS011;68526;44.600;26.032;2023-08-30T01:18:40;10.60;;;7.27;;
79122;SDS011;68526;44.600;26.032;2023-08-30T01:18:57;10.13;;;7.38;;
79122;SDS011;68526;44.600;26.032;2023-08-30T01:19:25;8.77;;;6.82;;
79122;SDS011;68526;44.600;26.032;2023-08-30T01:19:53;11.13;;;7.00;;
79122;SDS011;68526;44.600;26.032;2023-08-30T01:20:14;10.20;;;7.10;;
79122;SDS011;68526;44.600;26.032;2023-08-30T01:20:33;10.77;;;7.55;;
79122;SDS011;68526;44.600;26.032;2023-08-30T01:20:50;12.65;;;8.43;;
79122;SDS011;68526;44.600;26.032;2023-08-30T01:21:09;14.00;;;8.57;;
79122;SDS011;68526;44.600;26.032;2023-08-30T01:21:37;12.93;;;8.40;;
79122;SDS011;68526;44.600;26.032;2023-08-30T01:22:08;17.50;;;8.63;;
79122;SDS011;68526;44.600;26.032;2023-08-30T01:22:38;12.23;;;8.15;;
79122;SDS011;68526;44.600;26.032;2023-08-30T01:23:02;13.68;;;8.40;;
79122;SDS011;68526;44.600;26.032;2023-08-30T01:23:27;12.45;;;8.07;;
79122;SDS011;68526;44.600;26.032;2023-08-30T01:23:58;12.10;;;7.63;;
79122;SDS011;68526;44.600;26.032;2023-08-30T01:24:18;11.68;;;7.38;;
79122;SDS011;68526;44.600;26.032;2023-08-30T01:24:44;10.70;;;7.35;;
79122;SDS011;68526;44.600;26.032;2023-08-30T01:25:09;10.43;;;7.35;;
79122;SDS011;68526;44.600;26.032;2023-08-30T01:25:42;11.13;;;7.25;;
79122;SDS011;68526;44.600;26.032;2023-08-30T01:26:04;11.80;;;7.30;;
79122;SDS011;68526;44.600;26.032;2023-08-30T01:26:29;9.70;;;7.00;;
79122;SDS011;68526;44.600;26.032;2023-08-30T01:27:30;10.07;;;7.05;;
79122;SDS011;68526;44.600;26.032;2023-08-30T01:27:50;8.98;;;6.70;;
79122;SDS011;68526;44.600;26.032;2023-08-30T01:28:08;10.95;;;7.35;;
79122;SDS011;68526;44.600;26.032;2023-08-30T01:28:26;13.07;;;8.00;;
79122;SDS011;68526;44.600;26.032;2023-08-30T01:28:45;13.48;;;8.27;;
79122;SDS011;68526;44.600;26.032;2023-08-30T01:29:03;13.70;;;8.10;;
79122;SDS011;68526;44.600;26.032;2023-08-30T01:29:20;14.25;;;8.15;;
79122;SDS011;68526;44.600;26.032;2023-08-30T01:29:37;13.32;;;8.50;;
79122;SDS011;68526;44.600;26.032;2023-08-30T01:29:54;12.55;;;8.27;;
79122;SDS011;68526;44.600;26.032;2023-08-30T01:30:12;12.23;;;7.70;;
79122;SDS011;68526;44.600;26.032;2023-08-30T01:30:31;11.07;;;8.00;;
79122;SDS011;68526;44.600;26.032;2023-08-30T01:30:48;11.93;;;8.10;;
79122;SDS011;68526;44.600;26.032;2023-08-30T01:31:06;11.55;;;8.07;;
79122;SDS011;68526;44.600;26.032;2023-08-30T01:31:24;10.85;;;8.00;;
79122;SDS011;68526;44.600;26.032;2023-08-30T01:31:41;10.57;;;7.55;;
79122;SDS011;68526;44.600;26.032;2023-08-30T01:32:00;12.10;;;7.68;;
79122;SDS011;68526;44.600;26.032;2023-08-30T01:32:17;14.32;;;8.60;;
79122;SDS011;68526;44.600;26.032;2023-08-30T01:32:35;15.20;;;8.70;;
79122;SDS011;68526;44.600;26.032;2023-08-30T01:32:52;13.32;;;8.32;;
79122;SDS011;68526;44.600;26.032;2023-08-30T01:33:10;11.00;;;8.60;;
79122;SDS011;68526;44.600;26.032;2023-08-30T01:33:29;10.40;;;8.02;;
79122;SDS011;68526;44.600;26.032;2023-08-30T01:33:47;9.20;;;7.47;;
79122;SDS011;68526;44.600;26.032;2023-08-30T01:34:06;11.10;;;7.50;;
79122;SDS011;68526;44.600;26.032;2023-08-30T01:34:21;11.85;;;7.55;;
79122;SDS011;68526;44.600;26.032;2023-08-30T01:34:38;11.13;;;7.50;;
79122;SDS011;68526;44.600;26.032;2023-08-30T01:34:55;10.38;;;7.25;;
79122;SDS011;68526;44.600;26.032;2023-08-30T01:35:10;11.30;;;7.43;;
79122;SDS011;68526;44.600;26.032;2023-08-30T01:35:32;11.00;;;7.40;;
79122;SDS011;68526;44.600;26.032;2023-08-30T01:35:51;9.05;;;7.25;;
79122;SDS011;68526;44.600;26.032;2023-08-30T01:36:08;8.23;;;7.22;;
79122;SDS011;68526;44.600;26.032;2023-08-30T01:36:24;9.20;;;7.25;;
79122;SDS011;68526;44.600;26.032;2023-08-30T01:36:41;8.88;;;7.25;;
79122;SDS011;68526;44.600;26.032;2023-08-30T01:36:58;9.85;;;7.25;;
79122;SDS011;68526;44.600;26.032;2023-08-30T01:37:14;11.57;;;7.28;;
79122;SDS011;68526;44.600;26.032;2023-08-30T01:37:31;9.30;;;7.22;;
79122;SDS011;68526;44.600;26.032;2023-08-30T01:37:49;8.68;;;7.22;;
79122;SDS011;68526;44.600;26.032;2023-08-30T01:38:06;9.85;;;7.22;;
79122;SDS011;68526;44.600;26.032;2023-08-30T01:38:24;11.02;;;7.30;;
79122;SDS011;68526;44.600;26.032;2023-08-30T01:38:41;9.75;;;7.13;;
79122;SDS011;68526;44.600;26.032;2023-08-30T01:38:58;9.30;;;6.70;;
79122;SDS011;68526;44.600;26.032;2023-08-30T01:39:15;9.93;;;6.72;;
79122;SDS011;68526;44.600;26.032;2023-08-30T01:39:33;9.60;;;6.63;;
79122;SDS011;68526;44.600;26.032;2023-08-30T01:39:49;10.05;;;6.97;;
79122;SDS011;68526;44.600;26.032;2023-08-30T01:40:07;9.82;;;7.10;;
79122;SDS011;68526;44.600;26.032;2023-08-30T01:40:24;8.70;;;6.80;;
79122;SDS011;68526;44.600;26.032;2023-08-30T01:40:42;9.15;;;7.00;;
79122;SDS011;68526;44.600;26.032;2023-08-30T01:41:00;7.47;;;6.47;;
79122;SDS011;68526;44.600;26.032;2023-08-30T01:41:17;7.40;;;6.18;;
79122;SDS011;68526;44.600;26.032;2023-08-30T01:41:34;7.15;;;6.40;;
79122;SDS011;68526;44.600;26.032;2023-08-30T01:41:52;7.13;;;6.28;;